METAR Data
IDs: Format: Raw Decoded Include TAF

Data at: 0645 UTC 03 Aug 2021

KLGB 030553Z AUTO 32004KT 10SM CLR 22/13 A2997 RMK AO2 SLP146 T02170128 10294 20217 50007
KLGB 030453Z 32004KT 10SM CLR 23/12 A2997 RMK AO2 SLP147 T02330117
KLGB 030353Z 27004KT 10SM CLR 24/11 A2995 RMK AO2 SLP142 T02440106
KLGB 030253Z 30005KT 10SM CLR 25/11 A2994 RMK AO2 SLP139 T02500111 53003
KLGB 030153Z 28009KT 10SM CLR 25/12 A2994 RMK AO2 SLP138 T02500117
KLGB 030053Z 32011KT 10SM CLR 27/12 A2993 RMK AO2 SLP136 T02720117
KLGB 022353Z 30014KT 10SM CLR 29/09 A2993 RMK AO2 SLP136 T02940089 10333 20278 58012
KLGB 022253Z 30008KT 10SM CLR 31/08 A2994 RMK AO2 SLP139 T03110083
KLGB 022153Z 30013KT 10SM CLR 31/10 A2996 RMK AO2 SLP145 T03060100
KLGB 022053Z 28009KT 6SM HZ FEW007 33/11 A2997 RMK AO2 SLP148 T03330106 56020
KLGB 022011Z 17008KT 6SM HZ FEW007 30/14 A2998 RMK AO2 T03000139
KLGB 021953Z 17006KT 3SM HZ FEW007 29/14 A2998 RMK AO2 SLP152 T02940144
KLGB 021946Z 18006KT 7SM FEW008 30/14 A2999 RMK AO2 T03000144
KLGB 021853Z 21006KT 10SM CLR 28/15 A3001 RMK AO2 SLP161 T02830150
KLGB 021753Z 00000KT 10SM CLR 28/13 A3003 RMK AO2 SLP167 T02780133 10283 20178 58010
KLGB 021653Z VRB03KT 10SM CLR 25/14 A3004 RMK AO2 SLP172 T02500144
KLGB 021553Z 00000KT 10SM CLR 23/14 A3006 RMK AO2 SLP177 T02280144
KLGB 021453Z 03004KT 10SM CLR 21/15 A3006 RMK AO2 SLP177 T02110150 51015
KLGB 021353Z 00000KT 10SM CLR 19/15 A3005 RMK AO2 SLP174 T01890150
KLGB 021253Z AUTO 00000KT 10SM CLR 18/14 A3003 RMK AO2 SLP167 T01780144
KLGB 021153Z AUTO 00000KT 10SM CLR 18/14 A3001 RMK AO2 SLP162 T01830144 10200 20178 53001
KLGB 021053Z AUTO 34003KT 10SM CLR 18/14 A3001 RMK AO2 SLP160 T01830144
KLGB 020953Z AUTO 00000KT 10SM CLR 18/14 A3001 RMK AO2 SLP162 T01830144
KLGB 020853Z AUTO 34003KT 10SM CLR 19/14 A3001 RMK AO2 SLP162 T01890144 58004
KLGB 020753Z AUTO 31004KT 10SM CLR 19/14 A3001 RMK AO2 SLP163 T01940139 403170172
KLGB 020653Z AUTO 34003KT 10SM CLR 20/14 A3002 RMK AO2 SLP165 T02000139
KLGB 020553Z 34006KT 10SM CLR 20/13 A3002 RMK AO2 SLP165 T02000133 10272 20200 51009
KLGB 020453Z 31006KT 10SM CLR 21/13 A3002 RMK AO2 SLP165 T02110128
KLGB 020353Z 30007KT 10SM CLR 22/11 A3000 RMK AO2 SLP158 T02220111
KLGB 020253Z 29010KT 10SM CLR 23/12 A2999 RMK AO2 SLP156 T02280122 53000
KLGB 020153Z 30010KT 10SM CLR 24/12 A2998 RMK AO2 SLP153 T02390122
KLGB 020053Z 30015KT 10SM CLR 25/12 A2999 RMK AO2 SLP154 T02500122
KLGB 012353Z 28010KT 10SM CLR 27/13 A2999 RMK AO2 SLP156 T02720128 10317 20256 58004
KLGB 012253Z 29011KT 10SM CLR 28/14 A3000 RMK AO2 SLP159 T02780139
KLGB 012153Z 29011KT 10SM CLR 29/13 A3000 RMK AO2 SLP159 T02890133
KLGB 012053Z VRB03KT 10SM CLR 29/15 A3001 RMK AO2 SLP160 T02940150 58016
KLGB 011953Z 19008KT 10SM CLR 28/15 A3002 RMK AO2 SLP165 T02830150
KLGB 011853Z 17007KT 10SM CLR 26/16 A3004 RMK AO2 SLP172 T02610156